Time;durP1;ratioP1;P1;durP2;ratioP2;P2;SDS_P1;SDS_P2;PMS_P1;PMS_P2;Temp;Humidity;BMP_temperature;BMP_pressure;BME280_temperature;BME280_humidity;BME280_pressure;Samples;Min_cycle;Max_cycle;Signal;HPM_P1;HPM_P2
2022/09/05 00:02:03;;;;;;;6.80;3.23;;;15.80;99.90;;;;;;4977922;28;20459;-89
2022/09/05 00:05:02;;;;;;;3.53;3.33;;;15.80;99.90;;;;;;4973581;28;21190;-90
2022/09/05 00:07:34;;;;;;;3.20;3.00;;;15.60;99.90;;;;;;4985996;28;20196;-89
2022/09/05 00:10:21;;;;;;;3.40;3.10;;;15.60;99.90;;;;;;4994526;28;20825;-90
2022/09/05 00:12:48;;;;;;;3.60;3.30;;;15.60;99.90;;;;;;4980818;28;20480;-89
2022/09/05 00:15:24;;;;;;;3.80;3.00;;;15.60;99.90;;;;;;4974906;28;22523;-90
2022/09/05 00:18:20;;;;;;;5.33;3.60;;;15.60;99.90;;;;;;4974643;28;20454;-88
2022/09/05 00:21:20;;;;;;;;;;;;;;;;;;;;;
2022/09/05 00:24:13;;;;;;;4.27;3.63;;;15.60;99.90;;;;;;5001792;22;20507;-91
2022/09/05 00:27:03;;;;;;;3.63;3.37;;;15.60;99.90;;;;;;4971808;28;20455;-90
2022/09/05 00:30:16;;;;;;;3.60;3.20;;;15.60;99.90;;;;;;4979367;28;20447;-90
2022/09/05 00:33:03;;;;;;;2.97;2.77;;;15.60;99.90;;;;;;4956421;28;20908;-91
2022/09/05 00:35:46;;;;;;;3.57;3.27;;;15.60;99.90;;;;;;4973928;28;20879;-90
2022/09/05 00:38:18;;;;;;;3.53;3.23;;;15.50;99.90;;;;;;4971440;28;20441;-91
2022/09/05 00:40:55;;;;;;;4.00;3.70;;;15.50;99.90;;;;;;4981480;28;20485;-91
2022/09/05 00:43:38;;;;;;;3.70;2.83;;;15.40;99.90;;;;;;4976498;28;20432;-90
2022/09/05 00:46:11;;;;;;;6.23;3.43;;;15.40;99.90;;;;;;4975551;28;20432;-91
2022/09/05 00:48:57;;;;;;;3.23;2.93;;;15.40;99.90;;;;;;4985816;28;20977;-91
2022/09/05 00:51:47;;;;;;;3.53;3.23;;;15.40;99.90;;;;;;4980243;28;20561;-90
2022/09/05 00:54:39;;;;;;;4.43;3.20;;;15.40;99.90;;;;;;4986160;28;20483;-90
2022/09/05 00:57:35;;;;;;;4.10;3.80;;;15.20;99.90;;;;;;4967328;28;20432;-89
2022/09/05 01:01:03;;;;;;;2.97;2.77;;;15.20;99.90;;;;;;4982299;28;20560;-90
2022/09/05 01:04:12;;;;;;;3.50;3.07;;;15.40;99.90;;;;;;4982042;28;20520;-92
2022/09/05 01:06:59;;;;;;;3.10;2.90;;;15.50;99.90;;;;;;4973267;28;22208;-91
2022/09/05 01:09:38;;;;;;;3.53;3.23;;;15.40;99.90;;;;;;4975800;28;21148;-91
2022/09/05 01:12:49;;;;;;;3.40;3.20;;;15.40;99.90;;;;;;4965184;28;20440;-92
2022/09/05 01:15:48;;;;;;;3.43;3.13;;;15.40;99.90;;;;;;4958510;28;20485;-91
2022/09/05 01:18:39;;;;;;;3.13;2.93;;;15.40;99.90;;;;;;4977049;28;20439;-91
2022/09/05 01:21:24;;;;;;;3.23;2.93;;;15.30;99.90;;;;;;4996030;28;20459;-92
2022/09/05 01:24:17;;;;;;;3.53;3.23;;;15.30;99.90;;;;;;4981030;28;20444;-91
2022/09/05 01:26:51;;;;;;;4.13;3.00;;;15.20;99.90;;;;;;4979719;28;20484;-92
2022/09/05 01:29:53;;;;;;;3.20;3.00;;;15.30;99.90;;;;;;4982581;28;20460;-92
2022/09/05 01:32:21;;;;;;;4.40;3.07;;;15.20;99.90;;;;;;4955961;28;20446;-90
2022/09/05 01:35:21;;;;;;;3.93;3.30;;;15.10;99.90;;;;;;4971791;28;20451;-90
2022/09/05 01:37:52;;;;;;;3.00;2.80;;;15.00;99.90;;;;;;4964408;28;20450;-90
2022/09/05 01:40:46;;;;;;;3.40;3.10;;;15.00;99.90;;;;;;4983276;28;20537;-91
2022/09/05 01:43:22;;;;;;;5.57;3.40;;;15.00;99.90;;;;;;4976093;28;20511;-91
2022/09/05 01:46:16;;;;;;;4.43;3.30;;;15.00;99.90;;;;;;4971974;28;21147;-91
2022/09/05 01:48:53;;;;;;;3.43;3.10;;;15.00;99.90;;;;;;4972423;28;20806;-91
2022/09/05 01:51:33;;;;;;;4.20;3.20;;;15.00;99.90;;;;;;4980486;28;20439;-91
2022/09/05 01:54:18;;;;;;;3.80;3.50;;;15.00;99.90;;;;;;4976042;28;20602;-91
2022/09/05 01:57:01;;;;;;;4.10;3.00;;;14.90;99.90;;;;;;4971513;28;20469;-91
2022/09/05 02:00:06;;;;;;;7.03;3.30;;;14.80;99.90;;;;;;4982345;28;20444;-91
2022/09/05 02:03:06;;;;;;;4.53;2.83;;;14.80;99.90;;;;;;4957208;28;20791;-92
2022/09/05 02:05:58;;;;;;;6.77;3.50;;;14.70;99.90;;;;;;4981303;28;20463;-92
2022/09/05 02:08:39;;;;;;;3.60;3.30;;;14.70;99.90;;;;;;4986056;28;20980;-92
2022/09/05 02:11:37;;;;;;;3.40;2.87;;;14.70;99.90;;;;;;4965285;28;20471;-93
2022/09/05 02:14:21;;;;;;;3.87;3.57;;;14.80;99.90;;;;;;4979226;28;21130;-91
2022/09/05 02:16:50;;;;;;;8.07;3.80;;;14.80;99.90;;;;;;4981331;28;20525;-91
2022/09/05 02:19:31;;;;;;;4.50;4.10;;;14.80;99.90;;;;;;4970821;28;20957;-90
2022/09/05 02:22:13;;;;;;;4.77;4.37;;;14.90;99.90;;;;;;4977086;28;20488;-90
2022/09/05 02:24:49;;;;;;;4.70;4.30;;;14.90;99.90;;;;;;4979001;28;20494;-91
2022/09/05 02:27:35;;;;;;;4.90;4.13;;;14.90;99.90;;;;;;4972093;28;20443;-91
2022/09/05 02:30:07;;;;;;;4.47;4.07;;;14.90;99.90;;;;;;4968849;28;20443;-91
2022/09/05 02:33:09;;;;;;;4.10;3.80;;;14.90;99.90;;;;;;4990956;28;20467;-92
2022/09/05 02:35:42;;;;;;;4.33;3.93;;;14.80;99.90;;;;;;4969515;28;20435;-91
2022/09/05 02:38:11;;;;;;;3.50;3.20;;;14.60;99.90;;;;;;4974513;28;20455;-92
2022/09/05 02:41:00;;;;;;;3.80;3.50;;;14.60;99.90;;;;;;4972405;28;20451;-91
2022/09/05 02:43:39;;;;;;;7.97;3.83;;;14.70;99.90;;;;;;4961265;28;20853;-91
2022/09/05 02:46:19;;;;;;;3.50;3.20;;;14.80;99.90;;;;;;4978582;28;20492;-91
2022/09/05 02:48:57;;;;;;;5.20;3.20;;;14.80;99.90;;;;;;4979208;28;20551;-90
2022/09/05 02:51:35;;;;;;;4.10;3.63;;;14.80;99.90;;;;;;4972326;28;21369;-90
2022/09/05 02:54:06;;;;;;;3.70;3.30;;;14.80;99.90;;;;;;4968606;28;20476;-90
2022/09/05 02:57:12;;;;;;;3.57;3.10;;;14.80;99.90;;;;;;4968142;28;20656;-90
2022/09/05 02:59:49;;;;;;;4.00;3.70;;;14.70;99.90;;;;;;4961767;28;20506;-90
2022/09/05 03:02:36;;;;;;;3.80;3.27;;;14.60;99.90;;;;;;4986074;28;20443;-89
2022/09/05 03:05:05;;;;;;;3.80;3.50;;;14.60;99.90;;;;;;4965612;28;20558;-90
2022/09/05 03:08:14;;;;;;;3.77;3.47;;;14.50;99.90;;;;;;4977824;28;20456;-91
2022/09/05 03:11:19;;;;;;;3.73;3.43;;;14.40;99.90;;;;;;4968845;28;20431;-91
2022/09/05 03:14:28;;;;;;;5.13;3.83;;;14.40;99.90;;;;;;4974077;28;20481;-90
2022/09/05 03:17:15;;;;;;;3.97;3.67;;;14.40;99.90;;;;;;4967030;28;20602;-91
2022/09/05 03:19:53;;;;;;;4.80;4.43;;;14.50;99.90;;;;;;4979254;28;20440;-92
2022/09/05 03:22:41;;;;;;;4.57;4.17;;;14.40;99.90;;;;;;4975314;28;20463;-91
2022/09/05 03:25:44;;;;;;;4.60;4.20;;;14.40;99.90;;;;;;4973620;28;20472;-92
2022/09/05 03:28:30;;;;;;;4.43;3.90;;;14.30;99.90;;;;;;4972614;28;20486;-92
2022/09/05 03:31:02;;;;;;;3.70;3.50;;;14.40;99.90;;;;;;4971426;28;20458;-93
2022/09/05 03:34:04;;;;;;;4.23;3.93;;;14.30;99.90;;;;;;4978723;28;20471;-92
2022/09/05 03:36:55;;;;;;;7.00;4.10;;;14.30;99.90;;;;;;4983008;28;20529;-91
2022/09/05 03:39:38;;;;;;;3.90;3.60;;;14.20;99.90;;;;;;4979987;28;20471;-91
2022/09/05 03:42:34;;;;;;;4.90;4.20;;;14.20;99.90;;;;;;4971850;28;20493;-92
2022/09/05 03:45:19;;;;;;;5.63;5.10;;;14.20;99.90;;;;;;4975248;28;20470;-92
2022/09/05 03:47:53;;;;;;;8.63;4.50;;;14.30;99.90;;;;;;4979216;28;20436;-90
2022/09/05 03:50:27;;;;;;;5.23;4.83;;;14.20;99.90;;;;;;4981384;28;20983;-90
2022/09/05 03:53:24;;;;;;;4.70;4.20;;;14.10;99.90;;;;;;4976017;28;20526;-90
2022/09/05 03:56:07;;;;;;;4.90;4.60;;;14.20;99.90;;;;;;4982208;28;20559;-90
2022/09/05 03:58:39;;;;;;;5.13;4.63;;;14.10;99.90;;;;;;4979420;28;20439;-91
2022/09/05 04:01:34;;;;;;;4.90;4.50;;;14.10;99.90;;;;;;4978500;28;20451;-90
2022/09/05 04:04:26;;;;;;;6.03;4.17;;;14.00;99.90;;;;;;4959520;28;20444;-89
2022/09/05 04:07:02;;;;;;;5.50;3.90;;;13.90;99.90;;;;;;4955725;28;20437;-90
2022/09/05 04:09:47;;;;;;;4.40;4.00;;;13.80;99.90;;;;;;4982059;28;21023;-89
2022/09/05 04:12:23;;;;;;;5.93;4.20;;;13.70;99.90;;;;;;4972015;28;20450;-89
2022/09/05 04:14:58;;;;;;;4.27;3.87;;;13.60;99.90;;;;;;4981134;28;20360;-89
2022/09/05 04:17:36;;;;;;;5.00;4.60;;;13.60;99.90;;;;;;4967480;28;20467;-90
2022/09/05 04:20:13;;;;;;;4.33;3.93;;;13.60;99.90;;;;;;4978457;28;21003;-91
2022/09/05 04:23:15;;;;;;;5.10;4.30;;;13.60;99.90;;;;;;4966850;28;20494;-88
2022/09/05 04:25:59;;;;;;;4.60;4.10;;;13.70;99.90;;;;;;4981493;28;20459;-89
2022/09/05 04:28:56;;;;;;;5.17;4.77;;;13.70;99.90;;;;;;4969119;28;20484;-90
2022/09/05 04:32:00;;;;;;;4.93;4.30;;;13.80;99.90;;;;;;4958863;28;20437;-89
2022/09/05 04:35:10;;;;;;;4.73;4.33;;;13.90;99.90;;;;;;4949331;28;20488;-90
2022/09/05 04:37:52;;;;;;;5.47;4.70;;;14.10;99.90;;;;;;4962862;28;21242;-89
2022/09/05 04:40:38;;;;;;;4.73;4.10;;;14.10;99.90;;;;;;4971817;28;20543;-92
2022/09/05 04:43:19;;;;;;;6.53;5.20;;;14.20;99.90;;;;;;4974115;28;20941;-91
2022/09/05 04:45:52;;;;;;;5.10;4.60;;;14.20;99.90;;;;;;4970714;28;20452;-93
2022/09/05 04:48:25;;;;;;;9.57;4.97;;;14.20;99.90;;;;;;4976279;28;20590;-92
2022/09/05 04:51:31;;;;;;;6.73;4.40;;;14.20;99.90;;;;;;4982470;28;20519;-92
2022/09/05 04:54:21;;;;;;;6.33;4.57;;;14.20;99.90;;;;;;4962100;28;20468;-89
2022/09/05 04:56:53;;;;;;;4.70;4.27;;;14.20;99.90;;;;;;4971205;28;20444;-90
2022/09/05 04:59:30;;;;;;;5.00;4.60;;;14.20;99.90;;;;;;4979758;28;20539;-89
2022/09/05 05:02:04;;;;;;;4.70;4.23;;;14.20;99.90;;;;;;4976638;28;20443;-90
2022/09/05 05:04:40;;;;;;;8.13;4.97;;;14.10;99.90;;;;;;4988471;28;20555;-92
2022/09/05 05:07:25;;;;;;;6.67;4.70;;;14.10;99.90;;;;;;4981000;28;20440;-86
2022/09/05 05:09:55;;;;;;;6.43;4.80;;;14.10;99.90;;;;;;4971220;28;20619;-92
2022/09/05 05:13:12;;;;;;;4.37;3.97;;;14.20;99.90;;;;;;4978165;28;21399;-91
2022/09/05 05:16:07;;;;;;;5.10;4.70;;;14.10;99.90;;;;;;4986490;28;20587;-91
2022/09/05 05:18:42;;;;;;;5.33;4.83;;;14.20;99.90;;;;;;4983958;28;20830;-91
2022/09/05 05:21:26;;;;;;;5.90;5.50;;;14.30;99.90;;;;;;4984345;28;20450;-92
2022/09/05 05:24:12;;;;;;;4.70;4.37;;;14.40;99.90;;;;;;4999560;28;20459;-90
2022/09/05 05:27:14;;;;;;;29.30;26.20;;;14.50;99.90;;;;;;4958965;28;20488;-87
2022/09/05 05:30:03;;;;;;;83.03;73.90;;;14.50;99.90;;;;;;4970918;28;20443;-86
2022/09/05 05:32:42;;;;;;;7.03;5.87;;;14.60;99.90;;;;;;4969358;28;20444;-87
2022/09/05 05:35:34;;;;;;;8.53;5.67;;;14.70;99.90;;;;;;4969528;28;20459;-87
2022/09/05 05:38:16;;;;;;;6.00;5.40;;;14.80;99.90;;;;;;4980578;28;20466;-89
2022/09/05 05:40:56;;;;;;;7.50;5.57;;;14.90;99.90;;;;;;4963174;28;20902;-88
2022/09/05 05:43:39;;;;;;;5.30;4.90;;;14.90;99.90;;;;;;4978149;28;20444;-88
2022/09/05 05:46:04;;;;;;;6.40;5.57;;;15.00;99.90;;;;;;4980206;28;20447;-87
2022/09/05 05:48:38;;;;;;;5.73;5.23;;;14.90;99.90;;;;;;4987058;28;21536;-88
2022/09/05 05:51:19;;;;;;;6.93;5.50;;;14.90;99.90;;;;;;4979521;28;20193;-88
2022/09/05 05:54:06;;;;;;;5.67;5.27;;;14.80;99.90;;;;;;4979610;28;21037;-88
2022/09/05 05:56:56;;;;;;;5.03;4.67;;;14.90;99.90;;;;;;4975681;28;20439;-88
2022/09/05 05:59:30;;;;;;;5.60;5.10;;;14.90;99.90;;;;;;4974581;28;20539;-87
2022/09/05 06:02:18;;;;;;;5.90;5.37;;;14.90;99.90;;;;;;4977133;28;20519;-88
2022/09/05 06:05:05;;;;;;;5.70;5.20;;;14.90;99.90;;;;;;4979329;28;20454;-88
2022/09/05 06:08:04;;;;;;;5.10;4.70;;;14.90;99.90;;;;;;4973133;28;20447;-88
2022/09/05 06:10:55;;;;;;;5.43;4.97;;;14.90;99.90;;;;;;4975142;28;20434;-87
2022/09/05 06:13:46;;;;;;;6.20;5.70;;;15.00;99.90;;;;;;4978272;28;20479;-87
2022/09/05 06:16:46;;;;;;;6.27;5.70;;;15.00;99.90;;;;;;4924943;28;20448;-88
2022/09/05 06:19:15;;;;;;;6.43;5.83;;;15.00;99.90;;;;;;4979741;28;20954;-88
2022/09/05 06:22:11;;;;;;;6.60;6.00;;;15.10;99.90;;;;;;4976651;28;20439;-88
2022/09/05 06:25:14;;;;;;;6.23;5.70;;;15.20;99.90;;;;;;4979302;28;20453;-88
2022/09/05 06:28:12;;;;;;;6.20;5.67;;;15.30;99.90;;;;;;4968564;28;20455;-87
2022/09/05 06:30:46;;;;;;;6.17;5.70;;;15.40;99.90;;;;;;4979286;28;20498;-87
2022/09/05 06:33:37;;;;;;;5.90;5.50;;;15.50;99.90;;;;;;4979223;28;20463;-88
2022/09/05 06:36:06;;;;;;;5.93;5.53;;;15.60;99.90;;;;;;4973836;28;20443;-87
2022/09/05 06:39:01;;;;;;;6.10;5.50;;;15.80;99.90;;;;;;4978735;28;20902;-87
2022/09/05 06:41:57;;;;;;;7.17;6.57;;;15.90;99.90;;;;;;4967662;28;20559;-88
2022/09/05 06:44:46;;;;;;;6.63;5.90;;;16.10;99.90;;;;;;4976326;28;20428;-88
2022/09/05 06:47:17;;;;;;;5.60;5.20;;;16.30;99.90;;;;;;4979677;28;20538;-86
2022/09/05 06:50:05;;;;;;;5.47;5.07;;;16.40;99.90;;;;;;4979914;28;20445;-87
2022/09/05 06:53:06;;;;;;;5.37;4.97;;;16.40;99.90;;;;;;4970849;28;20471;-88
2022/09/05 06:55:58;;;;;;;5.40;4.90;;;16.40;99.90;;;;;;4977180;28;20447;-87
2022/09/05 06:58:52;;;;;;;5.37;4.87;;;16.50;99.90;;;;;;4971832;28;20439;-87
2022/09/05 07:01:32;;;;;;;9.30;5.00;;;16.60;99.90;;;;;;4975946;28;20447;-87
2022/09/05 07:04:11;;;;;;;5.33;4.83;;;16.60;99.90;;;;;;4975592;28;20906;-87
2022/09/05 07:07:01;;;;;;;6.50;4.57;;;16.70;99.90;;;;;;4980034;28;20448;-91
2022/09/05 07:09:47;;;;;;;5.50;5.00;;;16.80;99.90;;;;;;4987132;28;20434;-90
2022/09/05 07:12:26;;;;;;;5.43;5.03;;;16.80;99.90;;;;;;4989925;28;20443;-90
2022/09/05 07:14:57;;;;;;;6.03;5.13;;;17.00;99.90;;;;;;4990193;28;20513;-90
2022/09/05 07:17:56;;;;;;;5.53;5.13;;;17.10;99.90;;;;;;4992424;28;20495;-90
2022/09/05 07:20:29;;;;;;;5.30;4.80;;;17.20;99.90;;;;;;4994250;28;20437;-90
2022/09/05 07:23:21;;;;;;;5.60;5.10;;;17.40;99.90;;;;;;4995541;28;20453;-91
2022/09/05 07:25:50;;;;;;;5.67;4.73;;;17.50;99.90;;;;;;4993794;28;20526;-90
2022/09/05 07:28:18;;;;;;;5.47;4.97;;;17.80;99.90;;;;;;4987981;28;20450;-92
2022/09/05 07:31:15;;;;;;;5.43;4.93;;;17.90;99.90;;;;;;4995461;28;20446;-90
2022/09/05 07:33:49;;;;;;;5.53;4.87;;;18.10;99.90;;;;;;4987484;28;20484;-89
2022/09/05 07:36:19;;;;;;;5.23;4.80;;;18.20;99.90;;;;;;4994091;28;20435;-89
2022/09/05 07:38:49;;;;;;;5.30;4.80;;;18.40;99.90;;;;;;4991993;28;20439;-89
2022/09/05 07:41:32;;;;;;;5.27;4.83;;;18.60;99.90;;;;;;4989928;28;20431;-89
2022/09/05 07:44:15;;;;;;;4.93;4.57;;;18.70;99.90;;;;;;4987294;28;20452;-89
2022/09/05 07:46:47;;;;;;;4.90;4.50;;;18.90;99.90;;;;;;4987665;28;20490;-88
2022/09/05 07:49:17;;;;;;;5.27;4.80;;;18.90;99.90;;;;;;4982653;28;20539;-89
2022/09/05 07:51:53;;;;;;;6.37;5.10;;;18.90;99.90;;;;;;4988652;28;20452;-88
2022/09/05 07:54:25;;;;;;;5.80;4.80;;;19.00;99.90;;;;;;4991316;28;20494;-89
2022/09/05 07:56:53;;;;;;;4.93;4.63;;;19.20;99.90;;;;;;4979340;28;21056;-89
2022/09/05 07:59:21;;;;;;;4.93;4.53;;;19.40;99.90;;;;;;4986680;28;20490;-89
2022/09/05 08:01:49;;;;;;;5.40;4.70;;;19.40;99.90;;;;;;4989757;28;20431;-88
2022/09/05 08:04:28;;;;;;;4.77;4.30;;;19.40;99.90;;;;;;4993908;28;20852;-89
2022/09/05 08:06:58;;;;;;;4.83;4.43;;;19.50;99.90;;;;;;4992501;28;20430;-88
2022/09/05 08:09:36;;;;;;;3.87;3.57;;;19.60;99.90;;;;;;4992420;28;20505;-88
2022/09/05 08:12:10;;;;;;;6.13;4.77;;;19.90;99.90;;;;;;4985225;28;20614;-89
2022/09/05 08:14:51;;;;;;;5.00;4.60;;;20.10;99.90;;;;;;5006925;28;20558;-88
2022/09/05 08:17:25;;;;;;;4.33;4.03;;;20.00;99.90;;;;;;4989809;28;20530;-89
2022/09/05 08:20:05;;;;;;;4.43;4.13;;;20.10;99.90;;;;;;4981762;28;20865;-89
2022/09/05 08:22:43;;;;;;;4.80;4.40;;;20.40;99.90;;;;;;4988409;28;21478;-89
2022/09/05 08:25:29;;;;;;;4.13;3.83;;;20.60;99.90;;;;;;4986290;28;20470;-91
2022/09/05 08:28:18;;;;;;;4.20;3.90;;;20.80;99.90;;;;;;4986317;28;20464;-90
2022/09/05 08:30:54;;;;;;;3.97;3.57;;;20.90;99.90;;;;;;4990020;28;20436;-89
2022/09/05 08:33:24;;;;;;;4.10;3.77;;;20.90;99.90;;;;;;4987889;28;20486;-89
2022/09/05 08:35:57;;;;;;;4.20;3.80;;;21.20;99.90;;;;;;4988104;28;20443;-89
2022/09/05 08:38:24;;;;;;;4.40;4.07;;;21.40;99.90;;;;;;4990981;28;20538;-88
2022/09/05 08:41:25;;;;;;;4.20;3.90;;;21.60;99.90;;;;;;4988310;28;20800;-88
2022/09/05 08:44:19;;;;;;;4.57;4.17;;;21.80;99.90;;;;;;4983700;28;20481;-89
2022/09/05 08:46:54;;;;;;;3.50;3.30;;;22.00;99.90;;;;;;4987328;28;20436;-89
2022/09/05 08:49:30;;;;;;;4.10;3.70;;;22.00;99.90;;;;;;4985659;28;20565;-89
2022/09/05 08:52:12;;;;;;;3.63;3.33;;;22.10;99.90;;;;;;4986801;28;20436;-89
2022/09/05 08:55:02;;;;;;;4.50;4.10;;;22.30;99.90;;;;;;4986644;28;20497;-89
2022/09/05 08:57:55;;;;;;;4.90;3.67;;;22.50;99.90;;;;;;4983505;28;22108;-90
2022/09/05 09:00:25;;;;;;;4.07;3.77;;;22.70;99.90;;;;;;4978974;28;20447;-89
2022/09/05 09:03:09;;;;;;;4.00;3.70;;;22.80;99.90;;;;;;5009103;28;20490;-89
2022/09/05 09:05:53;;;;;;;4.10;3.70;;;22.90;99.90;;;;;;4986501;28;20444;-89
2022/09/05 09:08:29;;;;;;;3.93;3.43;;;22.90;99.90;;;;;;4980805;28;20441;-89
2022/09/05 09:11:01;;;;;;;3.83;3.43;;;22.70;99.90;;;;;;4980088;28;20444;-89
2022/09/05 09:13:41;;;;;;;3.53;3.33;;;22.60;99.90;;;;;;4986619;28;20660;-89
2022/09/05 09:16:51;;;;;;;4.10;3.70;;;22.80;99.90;;;;;;4987029;28;20447;-88
2022/09/05 09:19:32;;;;;;;3.83;3.43;;;23.00;99.90;;;;;;4914089;28;20487;-88
2022/09/05 09:22:15;;;;;;;3.60;3.40;;;23.20;99.90;;;;;;4983003;28;20518;-89
2022/09/05 09:24:44;;;;;;;4.23;3.90;;;23.40;99.90;;;;;;4988286;28;20610;-89
2022/09/05 09:27:47;;;;;;;3.83;3.63;;;23.60;99.90;;;;;;4984451;28;20471;-89
2022/09/05 09:30:14;;;;;;;4.27;3.87;;;23.70;99.90;;;;;;4985432;28;20435;-89
2022/09/05 09:32:48;;;;;;;3.30;3.10;;;23.90;99.90;;;;;;4995411;28;20423;-89
2022/09/05 09:35:36;;;;;;;5.60;3.50;;;24.10;99.90;;;;;;4981204;28;20475;-90
2022/09/05 09:38:20;;;;;;;4.03;3.70;;;24.30;99.90;;;;;;4986772;28;20432;-89
2022/09/05 09:41:23;;;;;;;4.30;3.30;;;24.50;99.90;;;;;;4974950;28;20443;-91
2022/09/05 09:44:05;;;;;;;3.43;3.23;;;24.60;99.90;;;;;;4985733;28;20467;-92
2022/09/05 09:46:42;;;;;;;3.50;3.20;;;24.80;99.90;;;;;;4985141;28;20458;-93
2022/09/05 09:49:11;;;;;;;3.57;3.27;;;24.90;99.90;;;;;;4985074;28;20444;-92
2022/09/05 09:51:44;;;;;;;3.53;3.27;;;25.10;99.90;;;;;;4983056;28;20934;-92
2022/09/05 09:54:38;;;;;;;3.30;3.10;;;25.20;99.40;;;;;;4986296;28;20627;-92
2022/09/05 09:57:34;;;;;;;3.70;3.40;;;25.50;99.90;;;;;;4985180;28;20526;-92
2022/09/05 10:00:16;;;;;;;3.90;3.60;;;25.60;98.90;;;;;;4985696;28;20431;-90
2022/09/05 10:02:57;;;;;;;4.00;3.70;;;25.40;99.50;;;;;;4985919;28;20535;-92
2022/09/05 10:05:44;;;;;;;3.43;3.23;;;25.50;99.00;;;;;;4980456;28;20981;-93
2022/09/05 10:08:15;;;;;;;3.73;3.43;;;25.60;97.80;;;;;;4985355;28;20439;-93
2022/09/05 10:11:02;;;;;;;3.10;2.90;;;25.30;98.50;;;;;;4981745;28;20969;-93
2022/09/05 10:14:02;;;;;;;3.97;3.20;;;25.30;99.00;;;;;;4996380;28;21020;-94
2022/09/05 10:17:03;;;;;;;4.10;3.77;;;25.60;99.30;;;;;;4978717;28;20471;-92
2022/09/05 10:19:53;;;;;;;3.53;3.33;;;26.00;97.50;;;;;;4982939;28;20474;-92
2022/09/05 10:22:44;;;;;;;4.50;3.00;;;26.20;96.80;;;;;;4983703;28;20456;-94
2022/09/05 10:25:21;;;;;;;2.73;2.63;;;26.50;95.50;;;;;;4986185;28;20435;-94
2022/09/05 10:28:07;;;;;;;2.93;2.73;;;26.60;95.40;;;;;;4991572;28;20443;-93
2022/09/05 10:30:48;;;;;;;3.07;2.80;;;26.80;93.70;;;;;;4993494;28;20447;-93
2022/09/05 10:33:35;;;;;;;3.20;3.00;;;26.70;94.20;;;;;;4989323;28;20474;-93
2022/09/05 10:36:14;;;;;;;4.97;3.20;;;26.70;94.80;;;;;;4990385;28;20465;-94
2022/09/05 10:38:51;;;;;;;3.67;3.37;;;27.20;92.60;;;;;;4987486;28;20520;-93
2022/09/05 10:41:21;;;;;;;3.20;2.90;;;27.60;92.40;;;;;;4982194;28;20456;-92
2022/09/05 10:44:01;;;;;;;2.70;2.57;;;27.20;92.20;;;;;;4990909;28;20973;-93
2022/09/05 10:46:39;;;;;;;2.73;2.50;;;27.20;91.80;;;;;;4992045;28;20533;-93
2022/09/05 10:49:18;;;;;;;2.83;2.63;;;27.40;91.50;;;;;;4990093;28;20522;-92
2022/09/05 10:52:01;;;;;;;2.80;2.57;;;27.70;90.00;;;;;;5003128;28;20447;-92
2022/09/05 10:54:48;;;;;;;3.10;2.90;;;27.70;90.70;;;;;;4997932;28;20470;-93
2022/09/05 10:57:39;;;;;;;3.13;2.93;;;28.00;92.00;;;;;;4990219;28;20444;-93
2022/09/05 11:00:26;;;;;;;2.93;2.63;;;28.40;90.60;;;;;;4983092;28;20456;-92
2022/09/05 11:02:56;;;;;;;2.90;2.70;;;28.30;87.70;;;;;;4989358;28;20764;-93
2022/09/05 11:05:25;;;;;;;2.50;2.40;;;28.00;85.20;;;;;;4992737;28;20450;-93
2022/09/05 11:08:22;;;;;;;2.30;2.20;;;27.80;85.40;;;;;;4994126;28;20476;-93
2022/09/05 11:10:56;;;;;;;2.50;2.40;;;28.20;85.80;;;;;;4986950;28;20483;-93
2022/09/05 11:13:46;;;;;;;3.37;2.90;;;28.50;85.80;;;;;;4990449;28;20525;-93
2022/09/05 11:16:47;;;;;;;2.60;2.47;;;28.90;84.40;;;;;;4993940;28;20452;-92
2022/09/05 11:19:32;;;;;;;2.57;2.40;;;29.00;79.20;;;;;;4989870;28;21183;-93
2022/09/05 11:22:07;;;;;;;2.87;2.67;;;28.70;79.30;;;;;;4988561;28;20430;-93
2022/09/05 11:24:42;;;;;;;2.60;2.30;;;28.80;80.50;;;;;;4990849;28;20447;-93
2022/09/05 11:27:20;;;;;;;3.00;2.60;;;28.80;81.30;;;;;;4989984;28;20967;-93
2022/09/05 11:30:12;;;;;;;2.57;2.37;;;28.70;79.40;;;;;;4994036;28;20443;-94
2022/09/05 11:33:05;;;;;;;3.60;2.53;;;28.70;77.60;;;;;;4993451;28;20537;-95
2022/09/05 11:35:35;;;;;;;3.33;2.63;;;29.00;76.20;;;;;;4989000;28;20450;-94
2022/09/05 11:38:07;;;;;;;2.50;2.30;;;29.10;76.20;;;;;;4991135;28;20427;-95
2022/09/05 11:40:55;;;;;;;3.83;2.47;;;29.00;74.50;;;;;;4990894;28;20428;-93
2022/09/05 11:43:52;;;;;;;2.63;2.53;;;29.10;80.20;;;;;;4996309;28;20447;-94
2022/09/05 11:47:01;;;;;;;2.20;2.10;;;29.10;77.00;;;;;;4995584;28;20758;-94
2022/09/05 11:49:36;;;;;;;2.53;2.40;;;28.90;76.60;;;;;;4994735;28;20435;-95
2022/09/05 11:52:42;;;;;;;2.33;2.23;;;29.00;75.50;;;;;;4989658;28;20435;-95
2022/09/05 11:55:48;;;;;;;2.67;2.50;;;29.20;73.50;;;;;;4990490;28;20456;-93
2022/09/05 11:59:05;;;;;;;2.20;2.10;;;29.50;71.10;;;;;;5017239;28;20436;-95
2022/09/05 12:01:42;;;;;;;2.20;2.10;;;29.70;71.90;;;;;;4996185;28;20447;-95
2022/09/05 12:04:41;;;;;;;2.20;2.10;;;29.70;75.50;;;;;;4989947;28;20532;-96
2022/09/05 12:07:14;;;;;;;2.63;2.30;;;29.80;74.00;;;;;;4992842;28;20432;-95
2022/09/05 12:10:12;;;;;;;2.80;2.60;;;30.10;70.70;;;;;;4992758;28;20440;-94
2022/09/05 12:12:50;;;;;;;2.90;2.70;;;29.50;72.80;;;;;;4992704;28;20439;-96
2022/09/05 12:15:33;;;;;;;2.70;2.30;;;29.70;72.80;;;;;;4992739;28;20476;-94
2022/09/05 12:18:36;;;;;;;2.37;2.20;;;29.90;71.30;;;;;;4997423;28;20420;-96
2022/09/05 12:21:50;;;;;;;2.37;2.27;;;29.80;65.70;;;;;;4982091;28;20451;-95
2022/09/05 12:24:55;;;;;;;2.40;2.20;;;29.90;66.90;;;;;;4970116;28;20531;-94
2022/09/05 12:27:28;;;;;;;1.97;1.87;;;30.20;62.60;;;;;;4992088;28;20604;-94
2022/09/05 12:30:06;;;;;;;2.30;2.10;;;29.80;63.80;;;;;;4996348;28;20450;-94
2022/09/05 12:32:32;;;;;;;2.40;2.03;;;30.00;63.20;;;;;;4989524;28;20435;-93
2022/09/05 12:34:59;;;;;;;2.50;2.30;;;30.30;64.60;;;;;;4978521;28;21098;-94
2022/09/05 12:37:32;;;;;;;3.00;2.30;;;30.40;67.10;;;;;;5006923;28;20530;-95
2022/09/05 12:40:10;;;;;;;3.10;2.30;;;30.40;65.30;;;;;;4990022;28;20478;-95
2022/09/05 12:42:52;;;;;;;2.50;2.40;;;30.80;60.20;;;;;;4989924;28;20950;-93
2022/09/05 12:45:43;;;;;;;2.57;2.37;;;30.30;61.70;;;;;;4987389;28;20444;-94
2022/09/05 12:48:32;;;;;;;2.27;2.17;;;30.20;66.30;;;;;;4993252;28;20440;-95
2022/09/05 12:51:15;;;;;;;2.30;2.20;;;30.30;65.20;;;;;;4983395;28;20475;-91
2022/09/05 12:53:44;;;;;;;3.70;2.70;;;29.50;67.20;;;;;;4994945;28;20436;-96
2022/09/05 12:56:32;;;;;;;2.30;2.20;;;28.90;65.50;;;;;;5001014;28;20520;-95
2022/09/05 12:59:01;;;;;;;2.27;2.17;;;28.70;65.60;;;;;;5006688;28;20440;-96
2022/09/05 13:01:31;;;;;;;2.80;2.47;;;29.20;64.90;;;;;;4996917;28;20481;-96
2022/09/05 13:04:31;;;;;;;2.23;2.13;;;30.00;64.50;;;;;;5078319;22;20530;-96
2022/09/05 13:43:42;;;;;;;2.63;2.17;;;30.50;60.50;;;;;;5436279;23;20494;-96
2022/09/05 13:51:38;;;;;;;2.40;2.30;;;30.30;63.50;;;;;;5487885;22;20510;-96
2022/09/05 14:25:53;;;;;;;2.38;2.28;;;41.10;43.40;;;;;;5019059;28;20225;-96
2022/09/05 14:28:28;;;;;;;2.30;2.20;;;39.80;42.60;;;;;;5000565;28;20193;-96
2022/09/05 14:31:27;;;;;;;2.60;2.50;;;37.70;46.70;;;;;;5355733;23;20234;-96
2022/09/05 14:58:02;;;;;;;2.40;2.20;;;31.40;54.80;;;;;;5392551;22;20505;-96
2022/09/05 15:00:59;;;;;;;1.97;1.87;;;31.30;56.90;;;;;;5020493;28;20423;-97
2022/09/05 15:03:35;;;;;;;2.30;2.20;;;31.50;57.00;;;;;;5027167;28;21568;-96
2022/09/05 15:17:35;;;;;;;2.23;2.03;;;30.60;55.30;;;;;;5925495;23;20552;-96
2022/09/05 15:20:07;;;;;;;2.50;2.30;;;31.20;57.90;;;;;;4983724;28;21022;-94
2022/09/05 15:23:02;;;;;;;2.87;2.67;;;31.20;57.40;;;;;;4983456;28;20444;-96
2022/09/05 15:25:46;;;;;;;3.73;2.37;;;31.30;57.50;;;;;;4991499;28;20476;-96
2022/09/05 15:28:20;;;;;;;3.13;2.57;;;31.80;53.90;;;;;;5003866;28;20450;-96
2022/09/05 15:30:59;;;;;;;2.60;2.50;;;31.30;54.20;;;;;;4997430;28;20431;-96
2022/09/05 15:33:27;;;;;;;3.10;2.80;;;31.20;54.60;;;;;;4984781;28;20489;-96
2022/09/05 15:35:54;;;;;;;2.20;2.00;;;30.90;54.90;;;;;;4987327;28;20527;-95
2022/09/05 15:38:35;;;;;;;2.30;2.20;;;30.70;56.40;;;;;;4987476;28;20552;-95
2022/09/05 15:41:08;;;;;;;3.40;2.70;;;30.90;59.20;;;;;;4981575;28;21040;-95
2022/09/05 15:43:38;;;;;;;3.17;2.90;;;31.40;60.80;;;;;;4984030;28;20578;-96
2022/09/05 15:46:05;;;;;;;2.70;2.50;;;31.80;58.30;;;;;;4980703;28;20830;-90
2022/09/05 15:48:37;;;;;;;2.20;2.10;;;31.80;55.50;;;;;;4976416;28;20440;-92
2022/09/05 15:51:16;;;;;;;2.70;2.60;;;31.60;54.20;;;;;;4974798;28;20461;-95
2022/09/05 15:53:41;;;;;;;2.73;2.50;;;31.10;53.90;;;;;;4977321;28;20431;-94
2022/09/05 15:56:10;;;;;;;2.23;2.13;;;31.40;53.00;;;;;;4978532;28;20446;-93
2022/09/05 15:58:46;;;;;;;2.50;2.40;;;31.90;52.60;;;;;;4995668;28;20180;-91
2022/09/05 16:01:15;;;;;;;2.20;2.00;;;32.60;51.60;;;;;;4974592;28;20442;-91
2022/09/05 16:03:47;;;;;;;3.17;2.23;;;32.50;52.60;;;;;;4980086;28;20479;-93